createdAt,value
2023-01-17T00:01:49.543Z,10.53
2023-01-17T00:04:35.870Z,9.73
2023-01-17T00:07:20.853Z,11.23
2023-01-17T00:09:53.759Z,13.00
2023-01-17T00:12:21.220Z,10.67
2023-01-17T00:14:48.848Z,11.70
2023-01-17T00:17:15.922Z,12.13
2023-01-17T00:20:01.272Z,9.93
2023-01-17T00:22:48.890Z,11.00
2023-01-17T00:25:37.383Z,11.27
2023-01-17T00:28:05.121Z,9.97
2023-01-17T00:30:31.890Z,9.43
2023-01-17T00:32:58.885Z,9.40
2023-01-17T00:35:27.807Z,8.63
2023-01-17T00:38:02.255Z,8.70
2023-01-17T00:40:28.832Z,11.27
2023-01-17T00:43:14.305Z,11.80
2023-01-17T00:46:01.784Z,10.03
2023-01-17T00:48:47.251Z,9.53
2023-01-17T00:51:32.666Z,10.03
2023-01-17T00:54:19.121Z,7.97
2023-01-17T00:57:04.378Z,8.43
2023-01-17T00:59:50.203Z,7.87
2023-01-17T01:02:35.608Z,7.00
2023-01-17T01:05:20.993Z,6.80
2023-01-17T01:08:06.461Z,7.70
2023-01-17T01:10:52.515Z,6.40
2023-01-17T01:13:40.845Z,6.17
2023-01-17T01:16:26.711Z,7.13
2023-01-17T01:19:12.090Z,9.03
2023-01-17T01:21:57.714Z,7.73
2023-01-17T01:24:42.894Z,6.73
2023-01-17T01:27:28.702Z,7.83
2023-01-17T01:30:14.149Z,8.87
2023-01-17T01:32:59.702Z,7.00
2023-01-17T01:35:26.711Z,8.07
2023-01-17T01:38:02.341Z,9.67
2023-01-17T01:40:29.046Z,9.10
2023-01-17T01:42:58.055Z,8.07
2023-01-17T01:45:30.308Z,8.30
2023-01-17T01:48:02.857Z,8.50
2023-01-17T01:50:31.986Z,7.73
2023-01-17T01:53:02.577Z,7.57
2023-01-17T01:55:35.950Z,7.93
2023-01-17T01:58:10.289Z,8.27
2023-01-17T02:00:38.780Z,7.77
2023-01-17T02:03:15.404Z,7.83
2023-01-17T02:05:44.200Z,7.70
2023-01-17T02:08:22.920Z,10.77
2023-01-17T02:10:51.089Z,9.73
2023-01-17T02:13:20.018Z,9.23
2023-01-17T02:16:10.044Z,7.47
2023-01-17T02:18:52.283Z,9.88
2023-01-17T02:21:45.133Z,8.57
2023-01-17T02:24:49.506Z,7.73
2023-01-17T02:27:43.003Z,8.63
2023-01-17T02:30:23.690Z,6.33
2023-01-17T02:33:16.863Z,8.00
2023-01-17T02:35:57.260Z,8.70
2023-01-17T02:41:31.166Z,10.87
2023-01-17T02:43:57.728Z,9.00
2023-01-17T02:46:24.795Z,8.37
2023-01-17T02:48:51.956Z,10.90
2023-01-17T02:51:45.711Z,8.97
2023-01-17T02:54:38.033Z,10.60
2023-01-17T02:57:18.297Z,7.53
2023-01-17T03:00:03.850Z,9.73
2023-01-17T03:02:52.103Z,8.97
2023-01-17T03:05:27.609Z,9.37
2023-01-17T03:07:55.149Z,11.03
2023-01-17T03:10:22.638Z,10.47
2023-01-17T03:12:50.053Z,12.10
2023-01-17T03:15:17.849Z,13.10
2023-01-17T03:17:49.374Z,11.87
2023-01-17T03:20:16.558Z,11.23
2023-01-17T03:22:43.059Z,10.07
2023-01-17T03:25:09.683Z,11.20
2023-01-17T03:27:36.345Z,8.87
2023-01-17T03:30:03.529Z,9.60
2023-01-17T03:32:30.196Z,10.67
2023-01-17T03:34:56.993Z,15.73
2023-01-17T03:37:23.798Z,23.30
2023-01-17T03:39:50.587Z,21.37
2023-01-17T03:42:17.404Z,20.07
2023-01-17T03:44:43.931Z,13.97
2023-01-17T03:47:12.284Z,10.43
2023-01-17T03:49:39.658Z,11.00
2023-01-17T03:52:07.470Z,11.73
2023-01-17T03:54:34.407Z,9.33
2023-01-17T03:57:01.002Z,10.37
2023-01-17T03:59:27.897Z,8.23
2023-01-17T04:01:54.532Z,8.33
2023-01-17T04:04:21.238Z,10.50
2023-01-17T04:06:48.461Z,10.23
2023-01-17T04:09:18.139Z,11.13
2023-01-17T04:11:45.066Z,11.82
2023-01-17T04:14:14.690Z,10.90
2023-01-17T04:16:42.473Z,9.35
2023-01-17T04:19:13.171Z,12.03
2023-01-17T04:21:39.922Z,11.67
2023-01-17T04:24:07.147Z,13.90
2023-01-17T04:26:33.718Z,11.03
2023-01-17T04:29:00.347Z,10.67
2023-01-17T04:31:26.946Z,10.13
2023-01-17T04:33:53.794Z,10.50
2023-01-17T04:36:20.397Z,10.03
2023-01-17T04:38:46.963Z,10.57
2023-01-17T04:41:13.720Z,12.17
2023-01-17T04:43:40.469Z,12.67
2023-01-17T04:46:10.357Z,10.63
2023-01-17T04:48:37.178Z,10.25
2023-01-17T04:51:05.272Z,9.57
2023-01-17T04:53:31.933Z,10.33
2023-01-17T04:55:58.600Z,12.07
2023-01-17T04:58:25.263Z,18.60
2023-01-17T05:00:52.185Z,30.67
2023-01-17T05:03:20.488Z,41.07
2023-01-17T05:05:48.116Z,86.80
2023-01-17T05:08:15.243Z,69.87
2023-01-17T05:10:42.091Z,53.70
2023-01-17T05:13:09.305Z,38.57
2023-01-17T05:15:37.002Z,40.53
2023-01-17T05:18:08.561Z,40.93
2023-01-17T05:20:35.925Z,46.67
2023-01-17T05:23:02.563Z,48.37
2023-01-17T05:25:32.111Z,67.33
2023-01-17T05:28:02.671Z,51.00
2023-01-17T05:32:59.092Z,34.70
2023-01-17T05:35:29.017Z,22.00
2023-01-17T05:37:56.335Z,22.75
2023-01-17T05:40:25.794Z,18.23
2023-01-17T05:42:55.623Z,32.53
2023-01-17T05:45:24.455Z,34.28
2023-01-17T05:47:53.254Z,34.67
2023-01-17T05:50:23.175Z,26.77
2023-01-17T05:52:55.093Z,26.40
2023-01-17T05:55:22.971Z,15.57
2023-01-17T05:57:50.679Z,15.70
2023-01-17T06:00:18.005Z,18.20
2023-01-17T06:02:45.704Z,17.30
2023-01-17T06:05:13.277Z,17.70
2023-01-17T06:07:46.575Z,21.00
2023-01-17T06:10:17.930Z,18.10
2023-01-17T06:12:45.873Z,18.63
2023-01-17T06:15:13.891Z,17.83
2023-01-17T06:17:40.647Z,17.10
2023-01-17T06:20:09.235Z,19.47
2023-01-17T06:22:37.803Z,23.20
2023-01-17T06:25:07.608Z,19.17
2023-01-17T06:27:34.464Z,16.77
2023-01-17T06:30:00.991Z,31.70
2023-01-17T06:32:27.886Z,23.70
2023-01-17T06:34:54.470Z,29.30
2023-01-17T06:37:21.262Z,21.13
2023-01-17T06:39:48.088Z,23.07
2023-01-17T06:42:14.784Z,23.03
2023-01-17T06:44:41.377Z,20.80
2023-01-17T06:47:07.953Z,18.63
2023-01-17T06:49:34.777Z,22.83
2023-01-17T06:52:01.416Z,19.57
2023-01-17T06:54:28.033Z,21.60
2023-01-17T06:56:54.687Z,17.13
2023-01-17T06:59:21.474Z,19.63
2023-01-17T07:01:48.197Z,25.00
2023-01-17T07:04:15.252Z,17.33
2023-01-17T07:06:41.951Z,14.50
2023-01-17T07:09:08.512Z,15.57
2023-01-17T07:11:35.183Z,16.23
2023-01-17T07:14:01.805Z,18.80
2023-01-17T07:16:28.491Z,19.23
2023-01-17T07:18:57.117Z,13.73
2023-01-17T07:21:23.887Z,15.67
2023-01-17T07:23:50.645Z,16.10
2023-01-17T07:26:18.664Z,16.50
2023-01-17T07:28:45.372Z,14.60
2023-01-17T07:31:12.062Z,14.63
2023-01-17T07:33:38.630Z,15.50
2023-01-17T07:36:07.665Z,18.10
2023-01-17T07:38:34.747Z,13.10
2023-01-17T07:41:01.474Z,17.20
2023-01-17T07:43:28.185Z,16.57
2023-01-17T07:45:54.966Z,12.73
2023-01-17T07:48:24.311Z,14.70
2023-01-17T07:50:57.349Z,15.80
2023-01-17T07:53:30.132Z,13.27
2023-01-17T07:56:04.807Z,12.57
2023-01-17T07:58:32.842Z,19.53
2023-01-17T08:01:08.221Z,18.50
2023-01-17T08:03:40.306Z,16.77
2023-01-17T08:06:16.538Z,13.10
2023-01-17T08:08:43.421Z,11.37
2023-01-17T08:11:10.002Z,9.80
2023-01-17T08:13:36.706Z,7.90
2023-01-17T08:16:03.694Z,23.03
2023-01-17T08:18:30.879Z,41.17
2023-01-17T08:20:57.473Z,32.63
2023-01-17T08:23:24.142Z,26.37
2023-01-17T08:25:51.075Z,22.23
2023-01-17T08:28:17.976Z,21.07
2023-01-17T08:30:44.563Z,17.57
2023-01-17T08:33:11.452Z,19.60
2023-01-17T08:35:38.051Z,27.03
2023-01-17T08:38:05.039Z,32.77
2023-01-17T08:40:35.271Z,30.87
2023-01-17T08:43:01.877Z,26.15
2023-01-17T08:45:29.395Z,23.87
2023-01-17T08:47:58.727Z,17.70
2023-01-17T08:50:26.137Z,34.27
2023-01-17T08:53:00.930Z,26.57
2023-01-17T08:55:27.897Z,27.07
2023-01-17T08:57:54.935Z,44.37
2023-01-17T09:00:22.008Z,51.27
2023-01-17T09:02:51.519Z,44.53
2023-01-17T09:05:18.240Z,55.15
2023-01-17T09:07:44.855Z,61.13
2023-01-17T09:10:19.710Z,36.10
2023-01-17T09:12:48.240Z,48.70
2023-01-17T09:15:17.849Z,64.97
2023-01-17T09:17:44.819Z,45.58
2023-01-17T09:20:11.916Z,40.37
2023-01-17T09:22:39.139Z,44.90
2023-01-17T09:25:06.935Z,40.27
2023-01-17T09:27:33.723Z,35.07
2023-01-17T09:30:00.471Z,26.40
2023-01-17T09:32:27.112Z,36.27
2023-01-17T09:34:53.777Z,29.50
2023-01-17T09:37:20.347Z,20.87
2023-01-17T09:39:46.873Z,18.97
2023-01-17T09:42:36.438Z,18.43
2023-01-17T09:45:03.261Z,19.58
2023-01-17T09:47:45.199Z,16.23
2023-01-17T09:50:31.997Z,17.17
2023-01-17T09:53:03.275Z,22.23
2023-01-17T09:55:40.042Z,15.40
2023-01-17T09:58:12.895Z,15.80
2023-01-17T10:00:54.225Z,13.57
2023-01-17T10:03:39.652Z,14.57
2023-01-17T10:06:27.435Z,14.63
2023-01-17T10:09:20.395Z,18.70
2023-01-17T10:11:57.054Z,21.53
2023-01-17T10:14:54.611Z,18.77
2023-01-17T10:17:21.231Z,17.63
2023-01-17T10:20:34.345Z,13.13
2023-01-17T10:23:04.155Z,20.60
2023-01-17T10:25:54.918Z,14.18
2023-01-17T10:28:30.652Z,12.53
2023-01-17T10:31:09.959Z,14.63
2023-01-17T10:33:50.179Z,12.07
2023-01-17T10:38:56.393Z,11.53
2023-01-17T10:41:28.474Z,11.63
2023-01-17T10:44:15.566Z,13.07
2023-01-17T10:47:24.747Z,14.77
2023-01-17T10:49:53.898Z,13.33
2023-01-17T10:52:26.415Z,13.67
2023-01-17T10:55:14.270Z,20.27
2023-01-17T10:57:45.923Z,12.50
2023-01-17T11:00:18.610Z,12.50
2023-01-17T11:02:50.574Z,15.90
2023-01-17T11:05:29.258Z,14.53
2023-01-17T11:08:07.479Z,10.67
2023-01-17T11:10:43.359Z,10.20
2023-01-17T11:13:28.228Z,9.30
2023-01-17T11:15:59.129Z,10.23
2023-01-17T11:18:29.994Z,9.37
2023-01-17T11:21:17.548Z,9.90
2023-01-17T11:23:50.923Z,8.80
2023-01-17T11:26:32.866Z,7.07
2023-01-17T11:29:25.560Z,7.83
2023-01-17T11:31:52.636Z,6.50
2023-01-17T11:34:25.092Z,8.63
2023-01-17T11:37:17.098Z,8.47
2023-01-17T11:39:44.565Z,6.83
2023-01-17T11:42:35.412Z,6.40
2023-01-17T11:45:25.624Z,7.07
2023-01-17T11:53:26.806Z,7.43
2023-01-17T11:55:58.228Z,8.70
2023-01-17T11:58:26.768Z,5.60
2023-01-17T12:01:07.876Z,5.97
2023-01-17T12:03:52.099Z,8.30
2023-01-17T12:06:30.918Z,4.83
2023-01-17T12:09:09.808Z,6.77
2023-01-17T12:12:13.530Z,8.33
2023-01-17T12:14:54.260Z,5.43
2023-01-17T12:17:32.992Z,6.67
2023-01-17T12:20:06.284Z,9.53
2023-01-17T12:22:52.096Z,7.40
2023-01-17T12:25:24.953Z,6.80
2023-01-17T12:28:22.368Z,7.63
2023-01-17T12:31:16.032Z,6.30
2023-01-17T12:33:50.968Z,6.10
2023-01-17T12:36:49.471Z,6.20
2023-01-17T12:39:20.656Z,7.27
2023-01-17T12:41:56.481Z,4.53
2023-01-17T12:44:51.863Z,5.63
2023-01-17T12:47:20.867Z,6.10
2023-01-17T12:50:03.317Z,4.60
2023-01-17T12:52:37.371Z,5.90
2023-01-17T12:55:13.810Z,4.17
2023-01-17T12:57:45.288Z,9.20
2023-01-17T13:00:23.176Z,7.33
2023-01-17T13:03:08.555Z,7.80
2023-01-17T13:05:45.329Z,5.63
2023-01-17T13:08:41.755Z,15.37
2023-01-17T13:11:28.388Z,7.83
2023-01-17T13:13:58.019Z,5.73
2023-01-17T13:16:33.982Z,8.43
2023-01-17T13:19:11.359Z,16.37
2023-01-17T13:21:38.262Z,8.00
2023-01-17T13:24:19.651Z,6.77
2023-01-17T13:26:55.789Z,9.93
2023-01-17T13:29:53.392Z,10.23
2023-01-17T13:32:38.975Z,9.93
2023-01-17T13:35:24.010Z,7.43
2023-01-17T13:38:16.553Z,5.13
2023-01-17T13:40:49.321Z,10.57
2023-01-17T13:43:24.337Z,9.90
2023-01-17T13:45:53.722Z,11.30
2023-01-17T13:48:23.406Z,7.45
2023-01-17T13:51:20.334Z,4.70
2023-01-17T13:53:47.954Z,5.17
2023-01-17T13:56:31.602Z,11.73
2023-01-17T13:59:02.858Z,7.97
2023-01-17T14:01:32.618Z,10.83
2023-01-17T14:03:59.147Z,8.30
2023-01-17T14:06:29.020Z,6.83
2023-01-17T14:09:18.600Z,15.30
2023-01-17T14:12:23.866Z,12.65
2023-01-17T14:14:56.952Z,9.60
2023-01-17T14:17:58.132Z,11.50
2023-01-17T14:20:28.215Z,8.60
2023-01-17T14:23:01.528Z,11.52
2023-01-17T14:25:39.240Z,13.70
2023-01-17T14:28:31.873Z,11.63
2023-01-17T14:31:03.110Z,14.90
2023-01-17T14:33:35.458Z,16.67
2023-01-17T14:36:05.884Z,12.67
2023-01-17T14:38:34.224Z,11.17
2023-01-17T14:41:08.748Z,13.60
2023-01-17T14:43:42.404Z,19.07
2023-01-17T14:46:18.894Z,23.37
2023-01-17T14:48:46.161Z,21.00
2023-01-17T14:51:14.986Z,14.47
2023-01-17T14:53:52.617Z,22.53
2023-01-17T14:56:20.441Z,24.33
2023-01-17T14:58:47.181Z,20.00
2023-01-17T15:01:21.288Z,18.37
2023-01-17T15:03:55.232Z,17.33
2023-01-17T15:06:32.667Z,30.50
2023-01-17T15:09:03.666Z,28.23
2023-01-17T15:11:35.375Z,37.77
2023-01-17T15:14:06.069Z,31.93
2023-01-17T15:16:38.151Z,30.30
2023-01-17T15:19:15.122Z,27.87
2023-01-17T15:21:44.002Z,16.87
2023-01-17T15:24:18.356Z,12.00
2023-01-17T15:26:45.538Z,10.83
2023-01-17T15:29:27.138Z,16.60
2023-01-17T15:31:58.308Z,23.97
2023-01-17T15:34:29.732Z,19.27
2023-01-17T15:37:03.764Z,21.77
2023-01-17T15:39:34.422Z,42.17
2023-01-17T15:42:05.319Z,59.97
2023-01-17T15:44:49.389Z,43.83
2023-01-17T15:47:33.113Z,32.83
2023-01-17T15:50:03.262Z,25.03
2023-01-17T15:52:30.390Z,29.63
2023-01-17T15:55:12.637Z,16.33
2023-01-17T15:57:40.070Z,13.03
2023-01-17T16:00:15.093Z,21.23
2023-01-17T16:02:44.242Z,39.10
2023-01-17T16:05:42.128Z,68.23
2023-01-17T16:08:08.707Z,102.00
2023-01-17T16:10:37.881Z,88.03
2023-01-17T16:13:10.703Z,84.87
2023-01-17T16:15:38.227Z,66.60
2023-01-17T16:18:15.788Z,56.67
2023-01-17T16:21:05.773Z,54.30
2023-01-17T16:23:32.713Z,35.47
2023-01-17T16:25:59.253Z,11.47
2023-01-17T16:28:25.872Z,27.07
2023-01-17T16:30:54.186Z,32.93
2023-01-17T16:33:20.816Z,37.17
2023-01-17T16:35:47.490Z,37.30
2023-01-17T16:38:19.863Z,40.30
2023-01-17T16:40:47.549Z,56.70
2023-01-17T16:43:16.070Z,46.80
2023-01-17T16:45:45.884Z,33.47
2023-01-17T16:48:13.033Z,32.08
2023-01-17T16:50:48.368Z,29.77
2023-01-17T16:53:16.256Z,30.30
2023-01-17T16:55:43.892Z,24.47
2023-01-17T16:58:10.911Z,28.77
2023-01-17T17:00:37.744Z,24.83
2023-01-17T17:03:04.342Z,24.70
2023-01-17T17:05:33.590Z,21.60
2023-01-17T17:08:00.964Z,31.53
2023-01-17T17:10:27.870Z,37.07
2023-01-17T17:12:54.644Z,33.30
2023-01-17T17:15:21.636Z,15.70
2023-01-17T17:17:48.391Z,19.83
2023-01-17T17:20:15.812Z,10.97
2023-01-17T17:22:44.424Z,10.47
2023-01-17T17:25:12.214Z,12.83
2023-01-17T17:27:39.126Z,7.63
2023-01-17T17:30:06.461Z,12.20
2023-01-17T17:32:33.006Z,10.97
2023-01-17T17:34:59.668Z,14.57
2023-01-17T17:37:29.061Z,9.03
2023-01-17T17:39:56.832Z,13.83
2023-01-17T17:42:23.827Z,13.30
2023-01-17T17:44:51.459Z,13.93
2023-01-17T17:47:18.206Z,12.90
2023-01-17T17:49:44.892Z,15.17
2023-01-17T17:52:11.892Z,12.33
2023-01-17T17:54:38.632Z,17.27
2023-01-17T17:57:05.992Z,11.23
2023-01-17T17:59:32.583Z,14.57
2023-01-17T18:02:00.130Z,19.90
2023-01-17T18:04:27.443Z,16.50
2023-01-17T18:06:57.736Z,20.83
2023-01-17T18:09:24.558Z,36.88
2023-01-17T18:11:51.246Z,74.03
2023-01-17T18:14:20.976Z,95.53
2023-01-17T18:16:48.278Z,113.00
2023-01-17T18:19:21.030Z,108.13
2023-01-17T18:21:48.866Z,114.87
2023-01-17T18:24:17.623Z,105.00
2023-01-17T18:26:46.767Z,79.27
2023-01-17T18:29:16.476Z,93.47
2023-01-17T18:31:44.821Z,78.55
2023-01-17T18:34:16.778Z,81.97
2023-01-17T18:36:43.935Z,74.97
2023-01-17T18:39:19.621Z,71.27
2023-01-17T18:41:46.678Z,56.67
2023-01-17T18:44:13.572Z,58.97
2023-01-17T18:46:42.144Z,57.10
2023-01-17T18:49:16.663Z,53.23
2023-01-17T18:51:46.667Z,55.20
2023-01-17T18:54:13.603Z,30.45
2023-01-17T18:56:40.375Z,22.90
2023-01-17T18:59:07.159Z,26.27
2023-01-17T19:01:35.866Z,19.00
2023-01-17T19:04:04.283Z,19.80
2023-01-17T19:06:37.177Z,24.53
2023-01-17T19:09:06.450Z,21.77
2023-01-17T19:11:33.924Z,19.20
2023-01-17T19:14:01.568Z,28.27
2023-01-17T19:16:30.622Z,17.50
2023-01-17T19:19:07.416Z,15.17
2023-01-17T19:21:34.755Z,17.13
2023-01-17T19:24:01.790Z,15.43
2023-01-17T19:26:29.360Z,14.33
2023-01-17T19:28:58.822Z,14.00
2023-01-17T19:31:28.146Z,14.13
2023-01-17T19:33:57.622Z,17.93
2023-01-17T19:36:26.929Z,20.00
2023-01-17T19:39:03.948Z,28.83
2023-01-17T19:41:32.559Z,16.37
2023-01-17T19:44:05.167Z,11.10
2023-01-17T19:46:32.543Z,13.93
2023-01-17T19:48:59.720Z,13.60
2023-01-17T19:51:28.032Z,13.67
2023-01-17T19:53:55.863Z,11.77
2023-01-17T19:56:26.283Z,11.90
2023-01-17T19:58:54.484Z,14.15
2023-01-17T20:01:24.833Z,13.67
2023-01-17T20:03:52.252Z,16.20
2023-01-17T20:06:21.615Z,13.23
2023-01-17T20:08:48.775Z,17.73
2023-01-17T20:11:22.123Z,15.73
2023-01-17T20:13:53.563Z,15.50
2023-01-17T20:16:21.082Z,15.13
2023-01-17T20:18:51.931Z,29.93
2023-01-17T20:21:21.493Z,18.67
2023-01-17T20:23:49.364Z,35.13
2023-01-17T20:26:19.136Z,34.40
2023-01-17T20:28:47.753Z,39.28
2023-01-17T20:31:20.166Z,25.93
2023-01-17T20:33:50.404Z,37.37
2023-01-17T20:36:19.442Z,38.50
2023-01-17T20:38:46.568Z,42.97
2023-01-17T20:41:18.635Z,36.90
2023-01-17T20:43:47.710Z,35.00
2023-01-17T20:46:15.820Z,42.60
2023-01-17T20:48:51.362Z,40.30
2023-01-17T20:51:18.943Z,42.93
2023-01-17T20:53:46.954Z,36.60
2023-01-17T20:56:15.489Z,38.73
2023-01-17T20:58:42.876Z,37.07
2023-01-17T21:01:11.864Z,32.00
2023-01-17T21:03:39.825Z,38.33
2023-01-17T21:06:09.153Z,32.73
2023-01-17T21:08:41.304Z,37.17
2023-01-17T21:11:17.221Z,38.63
2023-01-17T21:13:52.694Z,33.00
2023-01-17T21:16:23.124Z,43.23
2023-01-17T21:18:52.794Z,34.70
2023-01-17T21:21:30.801Z,40.10
2023-01-17T21:23:59.252Z,41.47
2023-01-17T21:26:27.902Z,38.17
2023-01-17T21:28:54.807Z,35.87
2023-01-17T21:31:25.006Z,41.90
2023-01-17T21:34:00.479Z,39.83
2023-01-17T21:36:46.662Z,32.90
2023-01-17T21:39:17.464Z,36.53
2023-01-17T21:41:48.101Z,35.37
2023-01-17T21:46:45.436Z,33.00
2023-01-17T21:49:12.327Z,37.90
2023-01-17T21:51:54.127Z,39.00
2023-01-17T21:54:42.092Z,48.80
2023-01-17T21:57:28.274Z,37.03
2023-01-17T21:59:55.237Z,37.67
2023-01-17T22:02:21.982Z,35.37
2023-01-17T22:04:48.893Z,30.63
2023-01-17T22:07:16.600Z,33.13
2023-01-17T22:09:43.197Z,37.20
2023-01-17T22:12:09.817Z,39.07
2023-01-17T22:14:38.089Z,38.47
2023-01-17T22:17:04.698Z,38.80
2023-01-17T22:19:31.492Z,36.27
2023-01-17T22:21:58.069Z,27.17
2023-01-17T22:24:24.765Z,48.90
2023-01-17T22:26:51.317Z,34.80
2023-01-17T22:29:19.090Z,33.40
2023-01-17T22:31:45.976Z,34.33
2023-01-17T22:34:14.036Z,30.63
2023-01-17T22:36:41.094Z,28.40
2023-01-17T22:39:09.378Z,25.13
2023-01-17T22:41:38.000Z,24.40
2023-01-17T22:44:08.620Z,26.90
2023-01-17T22:49:05.909Z,24.03
2023-01-17T22:51:32.497Z,21.87
2023-01-17T22:54:03.441Z,23.27
2023-01-17T22:56:32.843Z,27.93
2023-01-17T22:59:04.199Z,19.27
2023-01-17T23:01:32.745Z,24.93
2023-01-17T23:04:04.338Z,24.50
2023-01-17T23:06:33.190Z,23.50
2023-01-17T23:09:02.815Z,24.70
2023-01-17T23:11:41.290Z,20.83
2023-01-17T23:14:14.962Z,23.97
2023-01-17T23:17:16.838Z,23.60
2023-01-17T23:19:51.068Z,23.77
2023-01-17T23:22:27.202Z,22.10
2023-01-17T23:25:01.594Z,20.77
2023-01-17T23:27:48.223Z,20.43
2023-01-17T23:30:19.586Z,19.73
2023-01-17T23:32:51.857Z,21.37
2023-01-17T23:35:20.744Z,18.77
2023-01-17T23:38:07.877Z,18.83
2023-01-17T23:40:36.541Z,17.60
2023-01-17T23:43:22.323Z,18.10
2023-01-17T23:45:53.106Z,20.53
2023-01-17T23:48:20.960Z,13.87
2023-01-17T23:50:48.636Z,16.33
2023-01-17T23:53:22.475Z,16.53
2023-01-17T23:55:54.947Z,16.10
2023-01-17T23:58:24.335Z,15.50
